Monday, December 17, 2018, 6:08 AM EST
Back to Local

KNUI, Knui Webster Field Annex

Location: Saint Inigoes, MD, United States Lat: 38.15
Local Time: 6:08 AM EST (11:08 GMT) Lon: -76.417
Time Zone: US/Eastern Elev: 19 ft

Show me the last for .
Show Decoded

2018-12-17 05:53 METAR KNUI 171053Z AUTO 26005KT 10SM CLR 06/04 A2987 RMK AO2 SLP116 T00560039 =
2018-12-17 04:53 METAR KNUI 170953Z AUTO 28006KT 10SM FEW037 06/04 A2988 RMK AO2 SLP117 T00610039
                 =
2018-12-17 03:53 METAR KNUI 170853Z AUTO 29006KT 10SM OVC037 07/04 A2989 RMK AO2 SLP121 T00670044
                 58001 =
2018-12-17 02:53 METAR KNUI 170753Z AUTO 26005KT 10SM OVC033 06/04 A2990 RMK AO2 SLP125 T00610044
                 =
2018-12-17 01:53 METAR KNUI 170653Z AUTO 29006KT 10SM OVC030 06/04 A2990 RMK AO2 SLP125 T00610039
                 =
2018-12-17 00:53 METAR KNUI 170553Z AUTO 29005KT 10SM FEW036 05/03 A2990 RMK AO2 SLP123 T00500033
                 10067 20044 58003 =
2018-12-16 23:53 METAR KNUI 170453Z AUTO 32003KT 10SM FEW039 05/03 A2990 RMK AO2 SLP125 T00500033
                 401220050 =
2018-12-16 22:53 METAR KNUI 170353Z AUTO 30006KT 10SM CLR 06/03 A2991 RMK AO2 SLP127 T00560033 =
2018-12-16 22:30 METAR KNUI 170330Z AUTO 30006KT 10SM SCT016 06/04 A2991 RMK AO2 T00560039 =
2018-12-16 22:07 METAR KNUI 170307Z AUTO 30006KT 10SM OVC015 06/04 A2991 RMK AO2 T00610039 =
2018-12-16 21:53 METAR KNUI 170253Z AUTO 29007KT 10SM OVC014 06/04 A2990 RMK AO2 SLP125 T00610044
                 53012 =
2018-12-16 20:53 METAR KNUI 170153Z AUTO VRB04KT 10SM OVC014 06/04 A2989 RMK AO2 SLP119 T00610039
                 =
2018-12-16 20:44 METAR KNUI 170144Z AUTO 31006KT 10SM OVC013 06/04 A2989 RMK AO2 T00610039 =
2018-12-16 20:04 METAR KNUI 170104Z AUTO VRB06KT 10SM OVC015 07/04 A2989 RMK AO2 T00670039 =
2018-12-16 19:53 METAR KNUI 170053Z AUTO 33007G20KT 300V020 10SM BKN013 OVC020 07/04 A2989 RMK
                 AO2 SLP120 T00670039 =
2018-12-16 18:53 METAR KNUI 162353Z AUTO 30008G15KT 10SM OVC010 07/05 A2987 RMK AO2 SLP114 60002
                 T00670050 10089 20067 51022 =
2018-12-16 17:53 METAR KNUI 162253Z AUTO 31008G15KT 10SM BKN013 OVC021 07/05 A2985 RMK AO2 SLP108
                 T00670050 =
2018-12-16 16:53 METAR KNUI 162153Z AUTO 31010G15KT 10SM OVC012 07/06 A2983 RMK AO2 SLP101
                 T00720056 =
2018-12-16 15:53 METAR KNUI 162053Z AUTO VRB05KT 10SM OVC012 08/06 A2980 RMK AO2 RAE29B48E50
                 SLP092 P0000 60002 T00780061 53016 =
2018-12-16 14:53 METAR KNUI 161953Z AUTO 31010KT 8SM -RA OVC010 08/07 A2978 RMK AO2 RAB25 SLP085
                 P0001 T00830067 =
2018-12-16 14:40 METAR KNUI 161940Z AUTO 30010KT 7SM -RA OVC010 08/07 A2978 RMK AO2 RAB25 P0000
                 T00830072 =
2018-12-16 13:53 METAR KNUI 161853Z AUTO 30008KT 10SM OVC009 08/07 A2977 RMK AO2 RAE47 SLP079
                 P0001 T00830072 =
2018-12-16 13:08 METAR KNUI 161808Z AUTO 30004KT 4SM -RA BR BKN006 OVC011 09/08 A2976 =
2018-12-16 12:53 METAR KNUI 161753Z AUTO 33004KT 2SM -RA BR BKN006 OVC012 09/08 A2976 RMK AO2
                 RAB02E28B45 SLP076 P0001 60003 T00890083 10100 20089 56019 =
2018-12-16 12:42 METAR KNUI 161742Z AUTO 34005KT 1 3/4SM BR OVC006 09/08 A2976 RMK AO2 RAB02E28
                 P0000 T00890083 =
2018-12-16 12:27 METAR KNUI 161727Z AUTO 32008KT 3SM -RA BR OVC005 09/08 A2976 RMK AO2 RAB02
                 P0000 T00890083 =
2018-12-16 12:08 METAR KNUI 161708Z AUTO 28006KT 1 1/4SM -RA BR BKN003 OVC007 09/09 A2976 RMK AO2
                 RAB02 P0000 T00940094 =
2018-12-16 11:53 METAR KNUI 161653Z AUTO 25006KT 2SM BR OVC003 09/09 A2976 RMK AO2 RAB17E43
                 SLP078 P0001 T00940089 =
2018-12-16 11:34 METAR KNUI 161634Z AUTO 23007KT 1 1/2SM -RA BR OVC003 09/09 A2978 RMK AO2 RAB17
                 P0000 T00890089 =
2018-12-16 11:27 METAR KNUI 161627Z AUTO 22006KT 2SM -RA BR OVC003 09/09 A2978 RMK AO2 RAB17
                 P0000 T00890089 =
2018-12-16 11:11 METAR KNUI 161611Z AUTO 21007KT 1 3/4SM BR OVC003 09/09 A2979 RMK AO2 T00890089
                 =
2018-12-16 11:02 METAR KNUI 161602Z AUTO 21007KT 3/4SM BR OVC003 09/09 A2979 RMK AO2 T00890089 =
2018-12-16 10:53 METAR KNUI 161553Z AUTO 21007KT 1 1/4SM BR OVC003 09/09 A2980 RMK AO2 RAB33E43
                 SLP090 P0000 T00890089 =
2018-12-16 10:34 METAR KNUI 161534Z AUTO 20010KT 1 1/4SM -RA BR OVC003 09/09 A2981 RMK AO2 RAB33
                 P0000 T00940089 =
2018-12-16 10:26 METAR KNUI 161526Z AUTO 21007KT 2SM BR OVC003 09/09 A2981 RMK AO2 T00940094 =
2018-12-16 09:53 METAR KNUI 161453Z AUTO 19004KT 5SM BR OVC003 10/10 A2981 RMK AO2 RAE1355 CIG
                 002V008 SLP095 P0001 60001 T01000100 58002 =
2018-12-16 09:46 METAR KNUI 161446Z AUTO 21004KT 3SM BR OVC003 10/10 A2981 RMK AO2 RAE1355 P0001
                 T01000100 =
2018-12-16 09:21 METAR KNUI 161421Z AUTO 20006KT 2 1/2SM BR OVC003 10/09 A2982 RMK AO2 RAE1355
                 P0001 T01000094 =
2018-12-16 09:13 METAR KNUI 161413Z AUTO 22005KT 1 3/4SM BR OVC003 10/10 A2982 RMK AO2 RAE1355
                 P0001 T01000100 =
2018-12-16 09:01 METAR KNUI 161401Z AUTO 22004KT 2SM BR OVC004 10/10 A2983 =
2018-12-16 08:53 METAR KNUI 161353Z AUTO 21004KT 1 3/4SM -RA BR OVC004 10/10 A2982 RMK AO2 RAB42
                 SLP099 P0000 T01000100 =
2018-12-16 08:45 METAR KNUI 161345Z AUTO 23003KT 1 1/4SM -RA BR OVC004 10/10 A2982 RMK AO2 RAB42
                 P0000 T01000100 =
2018-12-16 08:36 METAR KNUI 161336Z AUTO 20003KT 1SM BR OVC005 10/09 A2982 RMK AO2 T01000094 =
2018-12-16 08:23 METAR KNUI 161323Z AUTO 23003KT 3/4SM BR OVC005 10/10 A2983 RMK AO2 T01000100 =
2018-12-16 07:53 METAR KNUI 161253Z AUTO 00000KT 1/2SM FG VV005 09/09 A2982 RMK AO2 SLP098
                 T00940094 =
2018-12-16 07:37 METAR KNUI 161237Z AUTO 00000KT 1/4SM FG VV005 09/09 A2982 =
2018-12-16 07:23 METAR KNUI 161223Z AUTO 22003KT 1/2SM FG VV006 10/09 A2982 RMK AO2 T01000094 =
2018-12-16 07:01 METAR KNUI 161201Z AUTO 00000KT 1SM BR VV005 10/09 A2982 RMK AO2 T01000094 =
2018-12-16 06:53 METAR KNUI 161153Z AUTO 00000KT 3/4SM BR VV006 10/09 A2982 RMK AO2 SLP098 70094
                 T01000094 10106 20089 55001 =
2018-12-16 06:50 METAR KNUI 161150Z AUTO 00000KT 3/4SM BR VV006 10/09 A2982 RMK AO2 =
2018-12-16 06:35 METAR KNUI 161135Z AUTO 00000KT 1/2SM FG VV005 10/09 A2982 RMK AO2 T01000094 =

Support USWX by starting your Amazon purchase here.